Map

Track Data

SID SEASON NUMBER BASIN SUBBASIN NAME ISO_TIME NATURE LAT LON WMO_WIND WMO_PRES WMO_AGENCY TRACK_TYPE DIST2LAND LANDFALL IFLAG USA_AGENCY USA_ATCF_ID USA_LAT USA_LON USA_RECORD USA_STATUS USA_WIND USA_PRES USA_SSHS USA_R34_NE USA_R34_SE USA_R34_SW USA_R34_NW USA_R50_NE USA_R50_SE USA_R50_SW USA_R50_NW USA_R64_NE USA_R64_SE USA_R64_SW USA_R64_NW USA_POCI USA_ROCI USA_RMW USA_EYE TOKYO_LAT TOKYO_LON TOKYO_GRADE TOKYO_WIND TOKYO_PRES TOKYO_R50_DIR TOKYO_R50_LONG TOKYO_R50_SHORT TOKYO_R30_DIR TOKYO_R30_LONG TOKYO_R30_SHORT TOKYO_LAND CMA_LAT CMA_LON CMA_CAT CMA_WIND CMA_PRES HKO_LAT HKO_LON HKO_CAT HKO_WIND HKO_PRES NEWDELHI_LAT NEWDELHI_LON NEWDELHI_GRADE NEWDELHI_WIND NEWDELHI_PRES NEWDELHI_CI NEWDELHI_DP NEWDELHI_POCI REUNION_LAT REUNION_LON REUNION_TYPE REUNION_WIND REUNION_PRES REUNION_TNUM REUNION_CI REUNION_RMW REUNION_R34_NE REUNION_R34_SE REUNION_R34_SW REUNION_R34_NW REUNION_R50_NE REUNION_R50_SE REUNION_R50_SW REUNION_R50_NW REUNION_R64_NE REUNION_R64_SE REUNION_R64_SW REUNION_R64_NW BOM_LAT BOM_LON BOM_TYPE BOM_WIND BOM_PRES BOM_TNUM BOM_CI BOM_RMW BOM_R34_NE BOM_R34_SE BOM_R34_SW BOM_R34_NW BOM_R50_NE BOM_R50_SE BOM_R50_SW BOM_R50_NW BOM_R64_NE BOM_R64_SE BOM_R64_SW BOM_R64_NW BOM_ROCI BOM_POCI BOM_EYE BOM_POS_METHOD BOM_PRES_METHOD NADI_LAT NADI_LON NADI_CAT NADI_WIND NADI_PRES WELLINGTON_LAT WELLINGTON_LON WELLINGTON_WIND WELLINGTON_PRES DS824_LAT DS824_LON DS824_STAGE DS824_WIND DS824_PRES TD9636_LAT TD9636_LON TD9636_STAGE TD9636_WIND TD9636_PRES TD9635_LAT TD9635_LON TD9635_WIND TD9635_PRES TD9635_ROCI NEUMANN_LAT NEUMANN_LON NEUMANN_CLASS NEUMANN_WIND NEUMANN_PRES MLC_LAT MLC_LON MLC_CLASS MLC_WIND MLC_PRES USA_GUST BOM_GUST BOM_GUST_PER REUNION_GUST REUNION_GUST_PER USA_SEAHGT USA_SEARAD_NE USA_SEARAD_SE USA_SEARAD_SW USA_SEARAD_NW STORM_SPEED STORM_DIR
1928250N14343 1928 52 NA NA NOT_NAMED 1928-09-06 00:00:00 TS 14.2000 -17.0000 30 hurdat_atl main 15 15 O_____________ hurdat_atl AL041928 14.2000 -17.0000 TD 30 -1 15 266
1928250N14343 1928 52 NA NA NOT_NAMED 1928-09-06 03:00:00 TS 14.1480 -17.7526 main 70 70 P_____________ AL041928 14.1480 -17.7526 TD 30 -1 15 266
1928250N14343 1928 52 NA NA NOT_NAMED 1928-09-06 06:00:00 TS 14.1000 -18.5000 30 hurdat_atl main 126 126 O_____________ hurdat_atl AL041928 14.1000 -18.5000 TD 30 -1 14 266
1928250N14343 1928 52 NA NA NOT_NAMED 1928-09-06 09:00:00 TS 14.0572 -19.2424 main 195 195 P_____________ AL041928 14.0572 -19.2424 TD 32 -1 15 266
1928250N14343 1928 52 NA NA NOT_NAMED 1928-09-06 12:00:00 TS 14.0000 -20.0000 35 hurdat_atl main 280 280 O_____________ hurdat_atl AL041928 14.0000 -20.0000 TS 35 0 15 264
1928250N14343 1928 52 NA NA NOT_NAMED 1928-09-06 15:00:00 TS 13.8998 -20.7926 main 366 366 P_____________ AL041928 13.8998 -20.7926 TS 37 0 16 263
1928250N14343 1928 52 NA NA NOT_NAMED 1928-09-06 18:00:00 TS 13.8000 -21.6000 40 hurdat_atl main 453 453 O_____________ hurdat_atl AL041928 13.8000 -21.6000 TS 40 0 16 264
1928250N14343 1928 52 NA NA NOT_NAMED 1928-09-06 21:00:00 TS 13.7422 -22.3999 main 540 540 P_____________ AL041928 13.7422 -22.3999 TS 42 0 16 266
1928250N14343 1928 52 NA NA NOT_NAMED 1928-09-07 00:00:00 TS 13.7000 -23.2000 45 hurdat_atl main 624 624 O_____________ hurdat_atl AL041928 13.7000 -23.2000 TS 45 0 16 267
1928250N14343 1928 52 NA NA NOT_NAMED 1928-09-07 03:00:00 TS 13.6497 -23.9925 main 711 711 P_____________ AL041928 13.6497 -23.9925 TS 47 0 16 266
1928250N14343 1928 52 NA NA NOT_NAMED 1928-09-07 06:00:00 TS 13.6000 -24.8000 50 hurdat_atl main 797 797 O_____________ hurdat_atl AL041928 13.6000 -24.8000 TS 50 0 16 266
1928250N14343 1928 52 NA NA NOT_NAMED 1928-09-07 09:00:00 TS 13.5423 -25.6426 main 884 884 P_____________ AL041928 13.5423 -25.6426 TS 52 0 17 267
1928250N14343 1928 52 NA NA NOT_NAMED 1928-09-07 12:00:00 TS 13.5000 -26.5000 55 hurdat_atl main 980 980 O_____________ hurdat_atl AL041928 13.5000 -26.5000 TS 55 0 17 268
1928250N14343 1928 52 NA NA NOT_NAMED 1928-09-07 15:00:00 TS 13.4921 -27.3424 main 1065 1065 P_____________ AL041928 13.4921 -27.3424 TS 57 0 17 270
1928250N14343 1928 52 NA NA NOT_NAMED 1928-09-07 18:00:00 TS 13.5000 -28.2000 60 hurdat_atl main 1162 1162 O_____________ hurdat_atl AL041928 13.5000 -28.2000 TS 60 0 17 270
1928250N14343 1928 52 NA NA NOT_NAMED 1928-09-07 21:00:00 TS 13.4923 -29.1001 main 1258 1258 P_____________ AL041928 13.4923 -29.1001 TS 60 0 18 270
1928250N14343 1928 52 NA NA NOT_NAMED 1928-09-08 00:00:00 TS 13.5000 -30.0000 60 hurdat_atl main 1355 1355 O_____________ hurdat_atl AL041928 13.5000 -30.0000 TS 60 0 17 272
1928250N14343 1928 52 NA NA NOT_NAMED 1928-09-08 03:00:00 TS 13.5421 -30.8500 main 1441 1441 P_____________ AL041928 13.5421 -30.8500 TS 60 0 17 273
1928250N14343 1928 52 NA NA NOT_NAMED 1928-09-08 06:00:00 TS 13.6000 -31.7000 60 hurdat_atl main 1536 1536 O_____________ hurdat_atl AL041928 13.6000 -31.7000 TS 60 0 17 274
1928250N14343 1928 52 NA NA NOT_NAMED 1928-09-08 09:00:00 TS 13.6498 -32.6000 main 1633 1633 P_____________ AL041928 13.6498 -32.6000 TS 60 0 18 273
1928250N14343 1928 52 NA NA NOT_NAMED 1928-09-08 12:00:00 TS 13.7000 -33.5000 60 hurdat_atl main 1728 1728 O_____________ hurdat_atl AL041928 13.7000 -33.5000 TS 60 0 17 273
1928250N14343 1928 52 NA NA NOT_NAMED 1928-09-08 15:00:00 TS 13.7496 -34.3500 main 1825 1824 P_____________ AL041928 13.7496 -34.3500 TS 60 0 17 273
1928250N14343 1928 52 NA NA NOT_NAMED 1928-09-08 18:00:00 TS 13.8000 -35.2000 60 hurdat_atl main 1910 1910 O_____________ hurdat_atl AL041928 13.8000 -35.2000 TS 60 0 17 273
1928250N14343 1928 52 NA NA NOT_NAMED 1928-09-08 21:00:00 TS 13.8498 -36.1000 main 1915 1902 P_____________ AL041928 13.8498 -36.1000 TS 60 0 18 273
1928250N14343 1928 52 NA NA NOT_NAMED 1928-09-09 00:00:00 TS 13.9000 -37.0000 60 hurdat_atl main 1902 1830 O_____________ hurdat_atl AL041928 13.9000 -37.0000 TS 60 0 17 273
1928250N14343 1928 52 NA NA NOT_NAMED 1928-09-09 03:00:00 TS 13.9420 -37.8501 main 1821 1758 P_____________ AL041928 13.9420 -37.8501 TS 60 0 17 273
1928250N14343 1928 52 NA NA NOT_NAMED 1928-09-09 06:00:00 TS 14.0000 -38.7000 60 hurdat_atl main 1758 1697 O_____________ hurdat_atl AL041928 14.0000 -38.7000 TS 60 0 17 275
1928250N14343 1928 52 NA NA NOT_NAMED 1928-09-09 09:00:00 TS 14.0998 -39.5999 main 1688 1622 P_____________ AL041928 14.0998 -39.5999 TS 60 0 18 277
1928250N14343 1928 52 NA NA NOT_NAMED 1928-09-09 12:00:00 TS 14.2000 -40.5000 60 hurdat_atl main 1622 1567 O_____________ hurdat_atl AL041928 14.2000 -40.5000 TS 60 0 17 275
1928250N14343 1928 52 NA NA NOT_NAMED 1928-09-09 15:00:00 TS 14.2570 -41.3501 main 1559 1500 P_____________ AL041928 14.2570 -41.3501 TS 60 0 17 273
1928250N14343 1928 52 NA NA NOT_NAMED 1928-09-09 18:00:00 TS 14.3000 -42.2000 60 hurdat_atl main 1500 1443 O_____________ hurdat_atl AL041928 14.3000 -42.2000 TS 60 0 17 273
1928250N14343 1928 52 NA NA NOT_NAMED 1928-09-09 21:00:00 TS 14.3498 -43.1000 main 1436 1385 P_____________ AL041928 14.3498 -43.1000 TS 60 0 17 273
1928250N14343 1928 52 NA NA NOT_NAMED 1928-09-10 00:00:00 TS 14.4000 -44.0000 60 hurdat_atl main 1385 1337 O_____________ hurdat_atl AL041928 14.4000 -44.0000 TS 60 0 17 273
1928250N14343 1928 52 NA NA NOT_NAMED 1928-09-10 03:00:00 TS 14.4420 -44.8501 main 1331 1286 P_____________ AL041928 14.4420 -44.8501 TS 60 0 17 273
1928250N14343 1928 52 NA NA NOT_NAMED 1928-09-10 06:00:00 TS 14.5000 -45.7000 60 hurdat_atl main 1286 1246 O_____________ hurdat_atl AL041928 14.5000 -45.7000 TS 60 0 17 275
1928250N14343 1928 52 NA NA NOT_NAMED 1928-09-10 09:00:00 TS 14.5923 -46.6000 main 1241 1201 P_____________ AL041928 14.5923 -46.6000 TS 60 0 18 277
1928250N14343 1928 52 NA NA NOT_NAMED 1928-09-10 12:00:00 TS 14.7000 -47.5000 60 hurdat_atl main 1201 1172 O_____________ hurdat_atl AL041928 14.7000 -47.5000 TS 60 0 17 277
1928250N14343 1928 52 NA NA NOT_NAMED 1928-09-10 15:00:00 TS 14.7921 -48.3577 main 1167 1145 P_____________ AL041928 14.7921 -48.3577 TS 62 0 17 277
1928250N14343 1928 52 NA NA NOT_NAMED 1928-09-10 18:00:00 TS 14.9000 -49.2000 65 hurdat_atl main 1145 1117 O_____________ hurdat_atl AL041928 14.9000 -49.2000 HU 65 1 17 279
1928250N14343 1928 52 NA NA NOT_NAMED 1928-09-10 21:00:00 TS 15.0422 -50.0500 main 1113 1102 P_____________ AL041928 15.0422 -50.0500 HU 67 1 17 280
1928250N14343 1928 52 NA NA NOT_NAMED 1928-09-11 00:00:00 TS 15.2000 -50.9000 70 hurdat_atl main 1102 1087 O_____________ hurdat_atl AL041928 15.2000 -50.9000 HU 70 1 17 281
1928250N14343 1928 52 NA NA NOT_NAMED 1928-09-11 03:00:00 TS 15.3498 -51.7576 main 1084 1056 P_____________ AL041928 15.3498 -51.7576 HU 72 1 17 280
1928250N14343 1928 52 NA NA NOT_NAMED 1928-09-11 06:00:00 TS 15.5000 -52.6000 75 hurdat_atl main 1056 995 O_____________ hurdat_atl AL041928 15.5000 -52.6000 HU 75 1 16 281
1928250N14343 1928 52 NA NA NOT_NAMED 1928-09-11 09:00:00 TS 15.6646 -53.4074 main 995 931 P_____________ AL041928 15.6646 -53.4074 HU 77 1 16 281
1928250N14343 1928 52 NA NA NOT_NAMED 1928-09-11 12:00:00 TS 15.8000 -54.2000 80 hurdat_atl main 931 872 O_____________ hurdat_atl AL041928 15.8000 -54.2000 HU 80 1 16 278
1928250N14343 1928 52 NA NA NOT_NAMED 1928-09-11 15:00:00 TS 15.8723 -55.0076 main 872 809 P_____________ AL041928 15.8723 -55.0076 HU 82 1 15 274
1928250N14343 1928 52 NA NA NOT_NAMED 1928-09-11 18:00:00 TS 15.9000 -55.8000 85 hurdat_atl main 809 759 O_____________ hurdat_atl AL041928 15.9000 -55.8000 HU 85 2 15 271
1928250N14343 1928 52 NA NA NOT_NAMED 1928-09-11 21:00:00 TS 15.9072 -56.5576 main 752 706 P_____________ AL041928 15.9072 -56.5576 HU 90 2 14 270
1928250N14343 1928 52 NA NA NOT_NAMED 1928-09-12 00:00:00 TS 15.9000 -57.3000 95 hurdat_atl main 706 666 O_____________ hurdat_atl AL041928 15.9000 -57.3000 HU 95 2 14 269
1928250N14343 1928 52 NA NA NOT_NAMED 1928-09-12 03:00:00 TS 15.8922 -58.0501 main 661 629 P_____________ AL041928 15.8922 -58.0501 HU 97 3 14 270
1928250N14343 1928 52 NA NA NOT_NAMED 1928-09-12 06:00:00 TS 15.9000 -58.8000 100 hurdat_atl main 629 604 O_____________ hurdat_atl AL041928 15.9000 -58.8000 HU 100 3 15 272
1928250N14343 1928 52 NA NA NOT_NAMED 1928-09-12 09:00:00 TS 15.9350 -59.5725 main 601 596 P_____________ AL041928 15.9350 -59.5725 HU 105 3 14 274
1928250N14343 1928 52 NA CS NOT_NAMED 1928-09-12 12:00:00 TS 16.0000 -60.3000 110 hurdat_atl main 598 551 O_____________ hurdat_atl AL041928 16.0000 -60.3000 HU 110 3 13 277
1928250N14343 1928 52 NA CS NOT_NAMED 1928-09-12 15:00:00 TS 16.0847 -60.9300 main 551 489 P_____________ AL041928 16.0847 -60.9300 HU 115 4 12 280
1928250N14343 1928 52 NA CS NOT_NAMED 1928-09-12 18:00:00 TS 16.2000 -61.5000 120 940 hurdat_atl main 489 437 O_____________ hurdat_atl AL041928 16.2000 -61.5000 HU 120 940 4 11 283
1928250N14343 1928 52 NA CS NOT_NAMED 1928-09-12 21:00:00 TS 16.3274 -62.0651 main 428 370 P_____________ AL041928 16.3274 -62.0651 HU 125 4 11 286
1928250N14343 1928 52 NA CS NOT_NAMED 1928-09-13 00:00:00 TS 16.5000 -62.6000 130 hurdat_atl main 370 313 O_____________ hurdat_atl AL041928 16.5000 -62.6000 HU 130 4 11 292
1928250N14343 1928 52 NA CS NOT_NAMED 1928-09-13 03:00:00 TS 16.7347 -63.0926 main 313 250 P_____________ AL041928 16.7347 -63.0926 HU 132 4 11 298
1928250N14343 1928 52 NA CS NOT_NAMED 1928-09-13 06:00:00 TS 17.0000 -63.6000 135 hurdat_atl main 250 185 O_____________ hurdat_atl AL041928 17.0000 -63.6000 HU 135 4 12 296
1928250N14343 1928 52 NA CS NOT_NAMED 1928-09-13 09:00:00 TS 17.2500 -64.1926 main 179 115 P_____________ AL041928 17.2500 -64.1926 HU 137 5 13 294
1928250N14343 1928 52 NA CS NOT_NAMED 1928-09-13 12:00:00 TS 17.5000 -64.8000 140 hurdat_atl main 115 62 O_____________ hurdat_atl AL041928 17.5000 -64.8000 HU 140 5 12 294
1928250N14343 1928 52 NA CS NOT_NAMED 1928-09-13 15:00:00 TS 17.7573 -65.3651 main 47 0 P_____________ AL041928 17.7573 -65.3651 HU 140 5 12 296
1928250N14343 1928 52 NA CS NOT_NAMED 1928-09-13 18:00:00 TS 18.0000 -65.9000 140 931 hurdat_atl main 0 0 O_____________ hurdat_atl AL041928 18.0000 -65.9000 HU 140 931 5 11 294
1928250N14343 1928 52 NA NA NOT_NAMED 1928-09-13 21:00:00 TS 18.1997 -66.4003 main 0 0 P_____________ AL041928 18.1997 -66.4003 HU 130 936 4 10 293
1928250N14343 1928 52 NA NA NOT_NAMED 1928-09-14 00:00:00 TS 18.4000 -66.9000 120 941 hurdat_atl main 0 0 O_____________ hurdat_atl AL041928 18.4000 -66.9000 HU 120 941 4 11 294
1928250N14343 1928 52 NA NA NOT_NAMED 1928-09-14 03:00:00 TS 18.6425 -67.4500 main 30 30 P_____________ AL041928 18.6425 -67.4500 HU 122 4 12 296
1928250N14343 1928 52 NA NA NOT_NAMED 1928-09-14 06:00:00 TS 18.9000 -68.0000 125 hurdat_atl main 46 35 O_____________ hurdat_atl AL041928 18.9000 -68.0000 HU 125 4 11 297
1928250N14343 1928 52 NA NA NOT_NAMED 1928-09-14 09:00:00 TS 19.1498 -68.5077 main 35 30 P_____________ AL041928 19.1498 -68.5077 HU 127 4 11 298
1928250N14343 1928 52 NA NA NOT_NAMED 1928-09-14 12:00:00 TS 19.4000 -69.0000 130 hurdat_atl main 30 22 O_____________ hurdat_atl AL041928 19.4000 -69.0000 HU 130 4 11 297
1928250N14343 1928 52 NA NA NOT_NAMED 1928-09-14 15:00:00 TS 19.6275 -69.5153 main 38 24 P_____________ AL041928 19.6275 -69.5153 HU 132 4 11 298
1928250N14343 1928 52 NA NA NOT_NAMED 1928-09-14 18:00:00 TS 19.9000 -70.0000 135 hurdat_atl main 33 33 O_____________ hurdat_atl AL041928 19.9000 -70.0000 HU 135 4 11 308
1928250N14343 1928 52 NA NA NOT_NAMED 1928-09-14 21:00:00 TS 20.2773 -70.4077 main 59 56 P_____________ AL041928 20.2773 -70.4077 HU 135 4 11 317
1928250N14343 1928 52 NA NA NOT_NAMED 1928-09-15 00:00:00 TS 20.7000 -70.8000 135 hurdat_atl main 100 100 O_____________ hurdat_atl AL041928 20.7000 -70.8000 HU 135 4 11 317
1928250N14343 1928 52 NA NA NOT_NAMED 1928-09-15 03:00:00 TS 21.1074 -71.2352 main 145 138 P_____________ AL041928 21.1074 -71.2352 HU 135 4 12 314
1928250N14343 1928 52 NA NA NOT_NAMED 1928-09-15 06:00:00 TS 21.5000 -71.7000 135 hurdat_atl main 138 106 O_____________ hurdat_atl AL041928 21.5000 -71.7000 HU 135 4 12 310
1928250N14343 1928 52 NA NA NOT_NAMED 1928-09-15 09:00:00 TS 21.8573 -72.1853 main 113 103 P_____________ AL041928 21.8573 -72.1853 HU 135 4 12 307
1928250N14343 1928 52 NA NA NOT_NAMED 1928-09-15 12:00:00 TS 22.2000 -72.7000 135 hurdat_atl main 116 113 O_____________ hurdat_atl AL041928 22.2000 -72.7000 HU 135 4 12 305
1928250N14343 1928 52 NA NA NOT_NAMED 1928-09-15 15:00:00 TS 22.5423 -73.2354 main 145 145 P_____________ AL041928 22.5423 -73.2354 HU 135 4 12 305
1928250N14343 1928 52 NA NA NOT_NAMED 1928-09-15 18:00:00 TS 22.9000 -73.8000 135 hurdat_atl main 199 199 O_____________ hurdat_atl AL041928 22.9000 -73.8000 HU 135 4 13 305
1928250N14343 1928 52 NA NA NOT_NAMED 1928-09-15 21:00:00 TS 23.2923 -74.3853 main 256 256 P_____________ AL041928 23.2923 -74.3853 HU 135 4 14 306
1928250N14343 1928 52 NA NA NOT_NAMED 1928-09-16 00:00:00 TS 23.7000 -75.0000 135 hurdat_atl main 288 217 O_____________ hurdat_atl AL041928 23.7000 -75.0000 HU 135 4 14 305
1928250N14343 1928 52 NA NA NOT_NAMED 1928-09-16 03:00:00 TS 24.0998 -75.6428 main 217 141 P_____________ AL041928 24.0998 -75.6428 HU 135 4 14 304
1928250N14343 1928 52 NA NA NOT_NAMED 1928-09-16 06:00:00 TS 24.5000 -76.3000 135 hurdat_atl main 141 92 O_____________ hurdat_atl AL041928 24.5000 -76.3000 HU 135 4 14 304
1928250N14343 1928 52 NA NA NOT_NAMED 1928-09-16 09:00:00 TS 24.9073 -76.9577 main 83 46 P_____________ AL041928 24.9073 -76.9577 HU 135 4 14 304
1928250N14343 1928 52 NA NA NOT_NAMED 1928-09-16 12:00:00 TS 25.3000 -77.6000 135 hurdat_atl main 46 37 O_____________ hurdat_atl AL041928 25.3000 -77.6000 HU 135 4 14 304
1928250N14343 1928 52 NA NA NOT_NAMED 1928-09-16 15:00:00 TS 25.6572 -78.2080 main 67 67 P_____________ AL041928 25.6572 -78.2080 HU 132 4 13 303
1928250N14343 1928 52 NA NA NOT_NAMED 1928-09-16 18:00:00 TS 26.0000 -78.8000 130 hurdat_atl main 122 69 O_____________ hurdat_atl AL041928 26.0000 -78.8000 HU 130 4 13 303
1928250N14343 1928 52 NA NA NOT_NAMED 1928-09-16 21:00:00 TS 26.3648 -79.4076 main 69 9 P_____________ AL041928 26.3648 -79.4076 HU 127 4 13 303
1928250N14343 1928 52 NA NA NOT_NAMED 1928-09-17 00:00:00 TS 26.7000 -80.0000 125 929 hurdat_atl main 9 0 O_____________ hurdat_atl AL041928 26.7000 -80.0000 L HU 125 929 4 12 300
1928250N14343 1928 52 NA NA NOT_NAMED 1928-09-17 03:00:00 TS 26.9574 -80.5730 main 0 0 P_____________ AL041928 26.9574 -80.5730 HU 112 3 11 297
1928250N14343 1928 52 NA NA NOT_NAMED 1928-09-17 06:00:00 TS 27.2000 -81.1000 100 hurdat_atl main 0 0 O_____________ hurdat_atl AL041928 27.2000 -81.1000 HU 100 3 11 299
1928250N14343 1928 52 NA NA NOT_NAMED 1928-09-17 09:00:00 TS 27.4776 -81.6174 main 0 0 P_____________ AL041928 27.4776 -81.6174 HU 92 2 10 307
1928250N14343 1928 52 NA NA NOT_NAMED 1928-09-17 12:00:00 TS 27.8000 -82.0000 85 hurdat_atl main 0 0 O_____________ hurdat_atl AL041928 27.8000 -82.0000 HU 85 2 9 325
1928250N14343 1928 52 NA NA NOT_NAMED 1928-09-17 15:00:00 TS 28.1847 -82.1827 main 0 0 P_____________ AL041928 28.1847 -82.1827 HU 80 1 8 347
1928250N14343 1928 52 NA NA NOT_NAMED 1928-09-17 18:00:00 TS 28.6000 -82.2000 75 hurdat_atl main 0 0 O_____________ hurdat_atl AL041928 28.6000 -82.2000 HU 75 1 8 2
1928250N14343 1928 52 NA NA NOT_NAMED 1928-09-17 21:00:00 TS 29.0075 -82.1377 main 0 0 P_____________ AL041928 29.0075 -82.1377 HU 72 1 8 13
1928250N14343 1928 52 NA NA NOT_NAMED 1928-09-18 00:00:00 TS 29.4000 -82.0000 70 hurdat_atl main 0 0 O_____________ hurdat_atl AL041928 29.4000 -82.0000 HU 70 1 8 17
1928250N14343 1928 52 NA NA NOT_NAMED 1928-09-18 03:00:00 TS 29.7349 -81.8795 main 0 0 P_____________ AL041928 29.7349 -81.8795 HU 67 1 7 20
1928250N14343 1928 52 NA NA NOT_NAMED 1928-09-18 06:00:00 TS 30.1000 -81.7000 65 977 hurdat_atl main 0 0 O_____________ hurdat_atl AL041928 30.1000 -81.7000 HU 65 977 1 9 26
1928250N14343 1928 52 NA NA NOT_NAMED 1928-09-18 09:00:00 TS 30.5551 -81.4224 main 9 0 P_____________ AL041928 30.5551 -81.4224 HU 70 976 1 11 27
1928250N14343 1928 52 NA NA NOT_NAMED 1928-09-18 12:00:00 TS 31.1000 -81.1000 75 976 hurdat_atl main 28 11 O_____________ hurdat_atl AL041928 31.1000 -81.1000 HU 75 976 1 14 20
1928250N14343 1928 52 NA NA NOT_NAMED 1928-09-18 15:00:00 TS 31.8262 -80.8808 main 11 0 P_____________ AL041928 31.8262 -80.8808 HU 75 976 1 14 21
1928250N14343 1928 52 NA NA NOT_NAMED 1928-09-18 18:00:00 TS 32.4000 -80.5000 75 977 hurdat_atl main 0 0 O_____________ hurdat_atl AL041928 32.4000 -80.5000 HU 75 977 1 13 36
1928250N14343 1928 52 NA NA NOT_NAMED 1928-09-18 19:00:00 TS 32.5000 -80.3000 75 977 hurdat_atl main 0 0 O_____________ hurdat_atl AL041928 32.5000 -80.3000 L HU 75 977 1 15 46
1928250N14343 1928 52 NA NA NOT_NAMED 1928-09-18 21:00:00 TS 32.9275 -79.8600 main 0 0 P_____________ AL041928 32.9275 -79.8600 HU 68 1 19 35
1928250N14343 1928 52 NA NA NOT_NAMED 1928-09-19 00:00:00 TS 33.8000 -79.2000 60 hurdat_atl main 0 0 O_____________ hurdat_atl AL041928 33.8000 -79.2000 TS 60 0 17 34
1928250N14343 1928 52 NA NA NOT_NAMED 1928-09-19 03:00:00 TS 34.3456 -78.7064 main 0 0 P_____________ AL041928 34.3456 -78.7064 TS 60 0 12 37
1928250N14343 1928 52 NA NA NOT_NAMED 1928-09-19 06:00:00 TS 34.8000 -78.3000 60 hurdat_atl main 0 0 O_____________ hurdat_atl AL041928 34.8000 -78.3000 TS 60 0 12 36
1928250N14343 1928 52 NA NA NOT_NAMED 1928-09-19 09:00:00 TS 35.3001 -77.8477 main 0 0 P_____________ AL041928 35.3001 -77.8477 TS 65 1 12 33
1928250N14343 1928 52 NA NA NOT_NAMED 1928-09-19 12:00:00 ET 35.8000 -77.5000 70 hurdat_atl main 0 0 O_____________ hurdat_atl AL041928 35.8000 -77.5000 EX 70 -4 11 23
1928250N14343 1928 52 NA NA NOT_NAMED 1928-09-19 15:00:00 ET 36.2848 -77.3247 main 0 0 P_____________ AL041928 36.2848 -77.3247 EX 65 -4 10 9
1928250N14343 1928 52 NA NA NOT_NAMED 1928-09-19 18:00:00 ET 36.8000 -77.3000 60 hurdat_atl main 0 0 O_____________ hurdat_atl AL041928 36.8000 -77.3000 EX 60 -4 11 0
1928250N14343 1928 52 NA NA NOT_NAMED 1928-09-19 21:00:00 ET 37.3474 -77.3479 main 0 0 P_____________ AL041928 37.3474 -77.3479 EX 55 -4 12 352
1928250N14343 1928 52 NA NA NOT_NAMED 1928-09-20 00:00:00 ET 38.0000 -77.5000 50 hurdat_atl main 0 0 O_____________ hurdat_atl AL041928 38.0000 -77.5000 EX 50 -4 15 349
1928250N14343 1928 52 NA NA NOT_NAMED 1928-09-20 03:00:00 ET 38.8048 -77.6911 main 0 0 P_____________ AL041928 38.8048 -77.6911 EX 45 -4 17 347
1928250N14343 1928 52 NA NA NOT_NAMED 1928-09-20 06:00:00 ET 39.7000 -78.0000 40 hurdat_atl main 0 0 O_____________ hurdat_atl AL041928 39.7000 -78.0000 EX 40 -4 19 340
1928250N14343 1928 52 NA NA NOT_NAMED 1928-09-20 09:00:00 ET 40.5783 -78.5199 main 0 0 P_____________ AL041928 40.5783 -78.5199 EX 37 -4 20 337
1928250N14343 1928 52 NA NA NOT_NAMED 1928-09-20 12:00:00 ET 41.5000 -79.0000 35 1008 hurdat_atl main 0 0 O_____________ hurdat_atl AL041928 41.5000 -79.0000 EX 35 1008 -4 20 345
1928250N14343 1928 52 NA NA NOT_NAMED 1928-09-20 15:00:00 ET 42.4846 -79.1913 main 0 0 P_____________ AL041928 42.4846 -79.1913 EX 32 1006 -4 20 356
1928250N14343 1928 52 NA NA NOT_NAMED 1928-09-20 18:00:00 ET 43.5000 -79.2000 30 hurdat_atl main 0 0 I_____________ hurdat_atl AL041928 43.5000 -79.2000 EX 30 1005 -4 20 2
1928250N14343 1928 52 NA NA NOT_NAMED 1928-09-20 21:00:00 ET 44.5052 -79.1205 main 0 0 P_____________ AL041928 44.5052 -79.1205 EX 27 1003 -4 20 4
1928250N14343 1928 52 NA NA NOT_NAMED 1928-09-21 00:00:00 ET 45.5000 -79.0000 25 1002 hurdat_atl main 0 O_____________ hurdat_atl AL041928 45.5000 -79.0000 EX 25 1002 -4 20 5

About IBTrACS Database

This database is a web-friendly format of International Best Track Archive for Climate Stewardship (IBTrACS), a global best track data archive curated by NOAA dating back to 1842.

Updated: 2021-10-21